createdAt,value
2022-09-22T00:01:11.945Z,52.71
2022-09-22T00:03:42.398Z,53.02
2022-09-22T00:06:13.608Z,53.13
2022-09-22T00:08:44.091Z,53.03
2022-09-22T00:11:17.127Z,52.99
2022-09-22T00:13:48.810Z,52.97
2022-09-22T00:16:15.991Z,52.82
2022-09-22T00:18:43.090Z,52.81
2022-09-22T00:21:20.130Z,52.55
2022-09-22T00:23:47.795Z,52.34
2022-09-22T00:26:21.870Z,52.70
2022-09-22T00:28:51.490Z,52.55
2022-09-22T00:31:24.266Z,52.76
2022-09-22T00:33:53.190Z,52.30
2022-09-22T00:36:22.570Z,52.54
2022-09-22T00:38:51.661Z,52.51
2022-09-22T00:41:22.030Z,52.68
2022-09-22T00:43:51.872Z,52.08
2022-09-22T00:46:24.408Z,51.73
2022-09-22T00:48:56.211Z,52.14
2022-09-22T00:51:27.203Z,52.08
2022-09-22T00:53:56.580Z,52.11
2022-09-22T00:56:35.470Z,52.61
2022-09-22T00:59:08.452Z,52.46
2022-09-22T01:01:36.987Z,52.30
2022-09-22T01:04:04.753Z,52.18
2022-09-22T01:06:32.031Z,52.04
2022-09-22T01:09:00.313Z,52.14
2022-09-22T01:11:30.030Z,52.11
2022-09-22T01:14:34.450Z,52.48
2022-09-22T01:17:16.571Z,52.67
2022-09-22T01:20:01.539Z,52.45
2022-09-22T01:22:40.590Z,52.62
2022-09-22T01:25:22.678Z,52.57
2022-09-22T01:28:28.816Z,52.67
2022-09-22T01:31:11.870Z,52.31
2022-09-22T01:33:44.892Z,52.31
2022-09-22T01:36:36.070Z,52.51
2022-09-22T01:39:28.699Z,52.13
2022-09-22T01:42:11.672Z,52.19
2022-09-22T01:45:01.692Z,52.30
2022-09-22T01:47:36.670Z,52.54
2022-09-22T01:50:09.569Z,52.68
2022-09-22T01:52:38.970Z,52.71
2022-09-22T01:55:27.259Z,52.39
2022-09-22T01:57:59.966Z,52.69
2022-09-22T02:00:27.530Z,52.65
2022-09-22T02:03:01.330Z,53.09
2022-09-22T02:05:45.432Z,53.55
2022-09-22T02:08:18.311Z,53.93
2022-09-22T02:10:48.191Z,53.69
2022-09-22T02:13:15.731Z,53.88
2022-09-22T02:16:01.681Z,53.44
2022-09-22T02:18:40.133Z,54.31
2022-09-22T02:21:07.399Z,54.19
2022-09-22T02:23:34.419Z,54.32
2022-09-22T02:26:03.218Z,54.61
2022-09-22T02:28:33.629Z,54.52
2022-09-22T02:31:19.527Z,54.36
2022-09-22T02:33:49.289Z,54.50
2022-09-22T02:36:53.930Z,54.60
2022-09-22T02:39:35.098Z,55.05
2022-09-22T02:42:11.350Z,54.48
2022-09-22T02:44:47.330Z,54.64
2022-09-22T02:47:32.649Z,54.63
2022-09-22T02:50:01.130Z,54.63
2022-09-22T02:52:27.951Z,54.87
2022-09-22T02:54:54.930Z,54.57
2022-09-22T02:57:22.078Z,54.82
2022-09-22T02:59:49.170Z,54.21
2022-09-22T03:02:16.490Z,54.57
2022-09-22T03:04:43.672Z,54.81
2022-09-22T03:07:10.650Z,54.73
2022-09-22T03:09:37.819Z,54.88
2022-09-22T03:12:05.045Z,54.80
2022-09-22T03:14:32.069Z,55.19
2022-09-22T03:16:59.350Z,55.26
2022-09-22T03:19:26.411Z,55.10
2022-09-22T03:21:53.411Z,54.83
2022-09-22T03:24:20.450Z,55.10
2022-09-22T03:26:47.490Z,54.97
2022-09-22T03:29:14.530Z,55.00
2022-09-22T03:31:41.452Z,54.73
2022-09-22T03:34:08.670Z,55.15
2022-09-22T03:36:35.691Z,55.22
2022-09-22T03:39:02.750Z,55.26
2022-09-22T03:41:29.830Z,55.20
2022-09-22T03:43:56.918Z,55.61
2022-09-22T03:46:23.937Z,55.60
2022-09-22T03:48:51.190Z,55.16
2022-09-22T03:51:19.592Z,55.29
2022-09-22T03:53:46.670Z,55.46
2022-09-22T03:56:16.450Z,55.69
2022-09-22T03:58:44.251Z,55.34
2022-09-22T04:01:11.721Z,55.97
2022-09-22T04:03:39.880Z,55.35
2022-09-22T04:06:07.430Z,55.41
2022-09-22T04:08:34.691Z,55.60
2022-09-22T04:11:03.552Z,56.03
2022-09-22T04:13:31.018Z,55.87
2022-09-22T04:15:58.871Z,56.62
2022-09-22T04:18:26.833Z,56.05
2022-09-22T04:20:58.508Z,56.65
2022-09-22T04:23:27.576Z,56.59
2022-09-22T04:25:55.263Z,56.23
2022-09-22T04:28:22.942Z,56.14
2022-09-22T04:30:50.644Z,55.78
2022-09-22T04:33:18.044Z,55.72
2022-09-22T04:35:45.468Z,55.82
2022-09-22T04:38:14.257Z,55.96
2022-09-22T04:40:41.797Z,55.79
2022-09-22T04:43:09.116Z,55.43
2022-09-22T04:45:39.634Z,55.20
2022-09-22T04:48:07.258Z,55.13
2022-09-22T04:50:34.348Z,55.18
2022-09-22T04:53:07.135Z,55.22
2022-09-22T04:55:35.299Z,55.16
2022-09-22T04:58:02.900Z,55.03
2022-09-22T05:00:30.909Z,55.07
2022-09-22T05:02:58.571Z,54.91
2022-09-22T05:05:25.823Z,55.38
2022-09-22T05:07:55.858Z,55.38
2022-09-22T05:10:25.575Z,55.14
2022-09-22T05:12:56.175Z,55.17
2022-09-22T05:15:23.458Z,54.78
2022-09-22T05:17:53.469Z,55.02
2022-09-22T05:20:21.535Z,55.22
2022-09-22T05:22:49.536Z,54.69
2022-09-22T05:25:19.336Z,54.69
2022-09-22T05:27:48.023Z,54.80
2022-09-22T05:30:15.819Z,54.69
2022-09-22T05:32:45.015Z,54.53
2022-09-22T05:35:13.855Z,54.73
2022-09-22T05:37:45.300Z,53.69
2022-09-22T05:40:13.714Z,53.25
2022-09-22T05:42:47.992Z,52.79
2022-09-22T05:45:16.660Z,52.60
2022-09-22T05:47:44.340Z,52.07
2022-09-22T05:50:13.856Z,51.88
2022-09-22T05:52:41.153Z,51.59
2022-09-22T05:55:08.951Z,51.53
2022-09-22T05:57:36.155Z,51.17
2022-09-22T06:00:05.681Z,50.71
2022-09-22T06:02:39.730Z,51.15
2022-09-22T06:05:07.547Z,51.50
2022-09-22T06:07:34.889Z,51.83
2022-09-22T06:10:02.337Z,51.97
2022-09-22T06:12:29.615Z,51.90
2022-09-22T06:14:57.384Z,51.34
2022-09-22T06:17:24.565Z,50.88
2022-09-22T06:19:51.993Z,50.57
2022-09-22T06:22:19.291Z,50.75
2022-09-22T06:24:46.542Z,50.98
2022-09-22T06:27:13.872Z,50.95
2022-09-22T06:29:42.003Z,51.05
2022-09-22T06:32:09.869Z,51.19
2022-09-22T06:34:38.570Z,51.25
2022-09-22T06:37:09.742Z,51.27
2022-09-22T06:39:40.741Z,51.21
2022-09-22T06:42:08.710Z,51.34
2022-09-22T06:44:36.130Z,51.25
2022-09-22T06:47:08.932Z,51.14
2022-09-22T06:49:36.477Z,50.97
2022-09-22T06:52:04.263Z,50.89
2022-09-22T06:54:31.686Z,50.45
2022-09-22T06:56:58.777Z,50.47
2022-09-22T06:59:26.099Z,49.77
2022-09-22T07:01:53.443Z,49.69
2022-09-22T07:04:22.668Z,49.36
2022-09-22T07:06:50.713Z,49.12
2022-09-22T07:09:18.282Z,49.22
2022-09-22T07:11:45.468Z,48.42
2022-09-22T07:14:12.871Z,48.28
2022-09-22T07:16:41.248Z,47.62
2022-09-22T07:19:08.833Z,48.15
2022-09-22T07:21:38.070Z,48.06
2022-09-22T07:24:08.540Z,46.76
2022-09-22T07:26:38.515Z,47.03
2022-09-22T07:29:08.969Z,46.58
2022-09-22T07:31:37.152Z,46.36
2022-09-22T07:34:04.467Z,46.43
2022-09-22T07:36:34.332Z,46.53
2022-09-22T07:39:11.503Z,47.14
2022-09-22T07:41:43.631Z,46.01
2022-09-22T07:44:43.712Z,45.33
2022-09-22T07:47:11.778Z,45.97
2022-09-22T07:49:39.020Z,45.79
2022-09-22T07:52:06.414Z,46.11
2022-09-22T07:54:37.097Z,45.98
2022-09-22T07:57:07.017Z,45.78
2022-09-22T07:59:36.498Z,45.23
2022-09-22T08:02:03.759Z,46.02
2022-09-22T08:04:32.265Z,46.12
2022-09-22T08:06:59.459Z,45.48
2022-09-22T08:09:26.982Z,45.00
2022-09-22T08:11:55.539Z,44.75
2022-09-22T08:14:24.256Z,44.05
2022-09-22T08:16:53.891Z,43.87
2022-09-22T08:19:24.117Z,44.71
2022-09-22T08:21:54.516Z,44.63
2022-09-22T08:24:23.372Z,44.65
2022-09-22T08:26:53.371Z,45.40
2022-09-22T08:29:21.531Z,44.94
2022-09-22T08:31:49.754Z,44.36
2022-09-22T08:34:18.398Z,42.80
2022-09-22T08:36:49.108Z,43.40
2022-09-22T08:39:19.853Z,43.15
2022-09-22T08:42:09.704Z,43.14
2022-09-22T08:44:54.867Z,42.31
2022-09-22T08:47:51.690Z,42.63
2022-09-22T08:51:03.822Z,41.82
2022-09-22T08:53:35.708Z,40.86
2022-09-22T08:56:30.949Z,40.79
2022-09-22T08:59:04.710Z,39.59
2022-09-22T09:02:11.514Z,39.90
2022-09-22T09:04:42.324Z,39.48
2022-09-22T09:07:10.426Z,39.55
2022-09-22T09:10:10.155Z,38.44
2022-09-22T09:12:49.020Z,38.35
2022-09-22T09:15:26.989Z,38.66
2022-09-22T09:17:59.422Z,38.28
2022-09-22T09:20:45.597Z,38.48
2022-09-22T09:23:19.651Z,38.09
2022-09-22T09:25:54.025Z,38.04
2022-09-22T09:28:32.062Z,37.73
2022-09-22T09:31:08.016Z,36.99
2022-09-22T09:33:47.151Z,36.86
2022-09-22T09:36:33.382Z,36.83
2022-09-22T09:39:11.468Z,37.02
2022-09-22T09:41:42.183Z,36.61
2022-09-22T09:44:20.506Z,36.21
2022-09-22T09:47:02.514Z,36.20
2022-09-22T09:49:30.198Z,36.41
2022-09-22T09:52:01.139Z,37.06
2022-09-22T09:54:28.904Z,37.18
2022-09-22T09:57:11.659Z,36.82
2022-09-22T10:00:00.471Z,36.36
2022-09-22T10:02:31.752Z,36.45
2022-09-22T10:05:01.175Z,35.83
2022-09-22T10:10:35.881Z,35.45
2022-09-22T10:13:03.382Z,36.17
2022-09-22T10:15:36.173Z,35.24
2022-09-22T10:18:24.301Z,34.51
2022-09-22T10:21:18.705Z,35.09
2022-09-22T10:23:54.094Z,34.86
2022-09-22T10:26:31.019Z,35.18
2022-09-22T10:29:13.418Z,35.79
2022-09-22T10:31:42.270Z,36.05
2022-09-22T10:34:34.991Z,35.88
2022-09-22T10:37:09.339Z,35.99
2022-09-22T10:39:47.379Z,36.41
2022-09-22T10:42:34.698Z,36.94
2022-09-22T10:45:14.348Z,36.56
2022-09-22T10:47:51.698Z,36.20
2022-09-22T10:50:48.498Z,37.03
2022-09-22T10:53:17.895Z,36.93
2022-09-22T10:56:13.095Z,36.29
2022-09-22T10:59:32.862Z,36.66
2022-09-22T11:14:02.575Z,37.75
2022-09-22T11:16:38.537Z,38.64
2022-09-22T11:19:31.775Z,38.61
2022-09-22T11:22:08.217Z,38.21
2022-09-22T11:24:55.734Z,37.50
2022-09-22T11:27:36.858Z,36.54
2022-09-22T11:30:23.334Z,35.63
2022-09-22T11:33:05.645Z,36.08
2022-09-22T11:35:51.184Z,35.28
2022-09-22T11:38:36.577Z,34.78
2022-09-22T11:41:31.655Z,33.18
2022-09-22T11:44:44.030Z,33.28
2022-09-22T11:47:43.755Z,31.53
2022-09-22T11:50:22.704Z,30.87
2022-09-22T11:53:08.503Z,30.23
2022-09-22T11:55:56.828Z,29.38
2022-09-22T11:58:28.382Z,29.60
2022-09-22T12:01:01.662Z,29.97
2022-09-22T12:03:35.988Z,30.40
2022-09-22T12:06:06.783Z,30.30
2022-09-22T12:08:39.741Z,30.66
2022-09-22T12:11:10.975Z,30.90
2022-09-22T12:13:46.203Z,31.19
2022-09-22T12:16:25.614Z,31.81
2022-09-22T12:19:03.562Z,32.15
2022-09-22T12:21:54.852Z,32.26
2022-09-22T12:24:22.190Z,32.38
2022-09-22T12:26:51.440Z,31.70
2022-09-22T12:29:30.819Z,32.06
2022-09-22T12:31:59.352Z,31.83
2022-09-22T12:34:29.550Z,31.56
2022-09-22T12:37:08.754Z,32.15
2022-09-22T12:39:44.633Z,31.93
2022-09-22T12:42:36.763Z,32.11
2022-09-22T12:45:20.933Z,32.88
2022-09-22T12:47:55.031Z,36.84
2022-09-22T12:50:25.009Z,38.65
2022-09-22T12:52:51.977Z,38.41
2022-09-22T12:55:40.049Z,39.57
2022-09-22T12:58:19.813Z,40.03
2022-09-22T13:00:51.041Z,39.40
2022-09-22T13:03:27.330Z,40.27
2022-09-22T13:05:59.861Z,40.20
2022-09-22T13:08:33.061Z,39.82
2022-09-22T13:11:05.984Z,39.63
2022-09-22T13:13:40.280Z,40.11
2022-09-22T13:16:16.810Z,40.35
2022-09-22T13:19:01.643Z,41.03
2022-09-22T13:21:31.371Z,41.98
2022-09-22T13:24:02.732Z,45.03
2022-09-22T13:26:39.121Z,43.19
2022-09-22T13:29:12.585Z,42.10
2022-09-22T13:31:51.304Z,40.54
2022-09-22T13:34:29.368Z,38.29
2022-09-22T13:36:58.972Z,37.85
2022-09-22T13:39:28.984Z,35.64
2022-09-22T13:42:04.280Z,34.78
2022-09-22T13:44:34.467Z,31.92
2022-09-22T13:47:07.134Z,29.95
2022-09-22T13:49:42.569Z,30.61
2022-09-22T13:52:18.227Z,32.11
2022-09-22T13:54:50.204Z,32.86
2022-09-22T13:57:28.176Z,35.67
2022-09-22T13:59:57.907Z,34.55
2022-09-22T14:02:30.774Z,35.79
2022-09-22T14:05:18.638Z,39.17
2022-09-22T14:08:07.770Z,39.95
2022-09-22T14:10:34.475Z,42.48
2022-09-22T14:13:01.377Z,42.63
2022-09-22T14:15:37.894Z,44.77
2022-09-22T14:18:26.621Z,45.17
2022-09-22T14:20:57.366Z,45.89
2022-09-22T14:23:31.611Z,46.62
2022-09-22T14:26:02.101Z,46.20
2022-09-22T14:28:35.193Z,44.79
2022-09-22T14:31:02.809Z,44.64
2022-09-22T14:33:33.688Z,44.16
2022-09-22T14:36:06.798Z,44.23
2022-09-22T14:38:44.452Z,44.46
2022-09-22T14:41:26.569Z,45.08
2022-09-22T14:43:54.760Z,45.04
2022-09-22T14:46:22.064Z,44.12
2022-09-22T14:48:49.214Z,45.47
2022-09-22T14:51:21.880Z,45.06
2022-09-22T14:53:55.627Z,43.44
2022-09-22T14:56:29.280Z,43.49
2022-09-22T14:59:22.744Z,43.97
2022-09-22T15:02:09.746Z,43.23
2022-09-22T15:04:41.163Z,43.73
2022-09-22T15:07:24.925Z,44.72
2022-09-22T15:09:55.704Z,43.80
2022-09-22T15:12:41.051Z,44.76
2022-09-22T15:15:26.955Z,45.00
2022-09-22T15:18:19.650Z,44.91
2022-09-22T15:20:52.397Z,44.81
2022-09-22T15:23:35.841Z,44.59
2022-09-22T15:26:06.627Z,44.00
2022-09-22T15:28:38.179Z,44.06
2022-09-22T15:31:09.386Z,44.27
2022-09-22T15:33:36.524Z,43.26
2022-09-22T15:36:11.408Z,43.33
2022-09-22T15:38:39.320Z,43.56
2022-09-22T15:41:11.043Z,44.24
2022-09-22T15:43:41.820Z,43.53
2022-09-22T15:46:34.182Z,44.09
2022-09-22T15:49:06.485Z,45.20
2022-09-22T15:51:33.660Z,45.13
2022-09-22T15:54:00.784Z,44.89
2022-09-22T15:56:30.358Z,44.03
2022-09-22T15:59:01.262Z,44.08
2022-09-22T16:01:29.747Z,44.45
2022-09-22T16:04:00.450Z,44.28
2022-09-22T16:06:27.745Z,43.99
2022-09-22T16:08:55.521Z,45.27
2022-09-22T16:11:31.608Z,46.52
2022-09-22T16:14:06.232Z,48.24
2022-09-22T16:16:36.027Z,48.63
2022-09-22T16:19:03.019Z,49.81
2022-09-22T16:21:30.918Z,50.55
2022-09-22T16:24:03.624Z,50.02
2022-09-22T16:26:32.134Z,50.32
2022-09-22T16:28:59.980Z,51.07
2022-09-22T16:31:27.766Z,51.64
2022-09-22T16:33:56.634Z,51.85
2022-09-22T16:36:58.301Z,52.40
2022-09-22T16:39:25.377Z,52.65
2022-09-22T16:41:52.322Z,53.39
2022-09-22T16:44:19.357Z,53.78
2022-09-22T16:46:46.298Z,53.83
2022-09-22T16:49:16.411Z,54.42
2022-09-22T16:51:49.019Z,54.60
2022-09-22T16:54:16.819Z,55.08
2022-09-22T16:56:47.000Z,54.96
2022-09-22T16:59:19.297Z,55.37
2022-09-22T17:01:46.561Z,55.16
2022-09-22T17:04:21.850Z,55.05
2022-09-22T17:06:49.959Z,55.69
2022-09-22T17:09:17.633Z,55.77
2022-09-22T17:11:46.773Z,56.29
2022-09-22T17:14:16.071Z,56.01
2022-09-22T17:16:55.758Z,56.13
2022-09-22T17:19:26.521Z,55.94
2022-09-22T17:21:55.623Z,56.01
2022-09-22T17:24:24.992Z,56.18
2022-09-22T17:26:57.934Z,55.99
2022-09-22T17:29:27.382Z,56.20
2022-09-22T17:32:02.892Z,56.22
2022-09-22T17:34:33.054Z,56.53
2022-09-22T17:37:03.082Z,56.90
2022-09-22T17:39:32.420Z,56.28
2022-09-22T17:41:59.526Z,56.40
2022-09-22T17:44:28.961Z,56.42
2022-09-22T17:47:14.997Z,56.52
2022-09-22T17:50:00.356Z,56.77
2022-09-22T17:52:40.134Z,57.15
2022-09-22T17:55:19.184Z,57.30
2022-09-22T17:57:46.693Z,56.89
2022-09-22T18:00:16.355Z,57.08
2022-09-22T18:02:45.367Z,56.93
2022-09-22T18:05:15.301Z,57.27
2022-09-22T18:07:42.666Z,56.96
2022-09-22T18:10:12.778Z,57.27
2022-09-22T18:12:40.569Z,56.46
2022-09-22T18:15:08.436Z,57.15
2022-09-22T18:17:43.187Z,57.52
2022-09-22T18:20:13.355Z,57.31
2022-09-22T18:22:42.003Z,57.07
2022-09-22T18:25:10.655Z,57.14
2022-09-22T18:27:38.335Z,57.16
2022-09-22T18:30:06.433Z,57.47
2022-09-22T18:32:35.009Z,57.31
2022-09-22T18:35:02.592Z,57.49
2022-09-22T18:37:29.762Z,57.02
2022-09-22T18:39:57.759Z,57.12
2022-09-22T18:42:27.721Z,57.66
2022-09-22T18:44:54.641Z,57.60
2022-09-22T18:47:23.803Z,57.30
2022-09-22T18:49:54.000Z,57.02
2022-09-22T18:52:25.002Z,56.59
2022-09-22T18:54:54.677Z,56.60
2022-09-22T18:57:24.620Z,57.99
2022-09-22T18:59:52.079Z,57.42
2022-09-22T19:02:23.345Z,57.44
2022-09-22T19:04:54.000Z,57.46
2022-09-22T19:07:42.572Z,57.68
2022-09-22T19:10:12.490Z,58.12
2022-09-22T19:12:40.929Z,58.13
2022-09-22T19:15:14.042Z,58.25
2022-09-22T19:17:47.242Z,57.77
2022-09-22T19:20:22.223Z,57.96
2022-09-22T19:22:50.710Z,58.14
2022-09-22T19:25:20.270Z,57.95
2022-09-22T19:27:47.820Z,57.43
2022-09-22T19:30:14.810Z,57.67
2022-09-22T19:32:42.100Z,57.44
2022-09-22T19:35:09.962Z,57.63
2022-09-22T19:37:37.390Z,57.72
2022-09-22T19:40:06.791Z,57.81
2022-09-22T19:42:40.028Z,57.75
2022-09-22T19:45:08.079Z,57.62
2022-09-22T19:47:35.777Z,57.75
2022-09-22T19:50:03.401Z,58.31
2022-09-22T19:52:30.304Z,57.99
2022-09-22T19:54:57.292Z,57.75
2022-09-22T19:57:24.462Z,57.76
2022-09-22T19:59:51.402Z,57.75
2022-09-22T20:02:18.619Z,57.65
2022-09-22T20:04:46.691Z,58.14
2022-09-22T20:07:13.969Z,58.22
2022-09-22T20:09:40.942Z,58.02
2022-09-22T20:12:08.282Z,57.90
2022-09-22T20:14:35.440Z,57.83
2022-09-22T20:17:06.480Z,58.15
2022-09-22T20:19:35.381Z,57.91
2022-09-22T20:22:29.392Z,57.91
2022-09-22T20:24:59.040Z,57.41
2022-09-22T20:27:29.371Z,57.79
2022-09-22T20:29:58.451Z,57.27
2022-09-22T20:32:26.981Z,57.27
2022-09-22T20:34:55.638Z,56.99
2022-09-22T20:37:23.325Z,57.37
2022-09-22T20:39:50.762Z,56.86
2022-09-22T20:42:18.323Z,56.71
2022-09-22T20:44:45.551Z,57.10
2022-09-22T20:47:18.102Z,56.27
2022-09-22T20:49:50.681Z,56.82
2022-09-22T20:52:20.473Z,57.37
2022-09-22T20:54:48.465Z,57.91
2022-09-22T20:57:16.326Z,57.70
2022-09-22T20:59:45.994Z,58.45
2022-09-22T21:02:14.258Z,58.51
2022-09-22T21:04:41.632Z,58.91
2022-09-22T21:07:09.269Z,58.30
2022-09-22T21:09:54.603Z,58.84
2022-09-22T21:12:21.602Z,58.46
2022-09-22T21:14:48.951Z,58.56
2022-09-22T21:17:15.925Z,58.23
2022-09-22T21:19:43.531Z,58.34
2022-09-22T21:22:10.735Z,58.33
2022-09-22T21:24:37.632Z,58.26
2022-09-22T21:27:05.403Z,57.75
2022-09-22T21:29:32.572Z,58.33
2022-09-22T21:32:00.808Z,58.06
2022-09-22T21:34:27.970Z,58.32
2022-09-22T21:36:54.893Z,58.18
2022-09-22T21:39:22.509Z,57.81
2022-09-22T21:41:49.861Z,57.51
2022-09-22T21:44:16.756Z,57.51
2022-09-22T21:46:44.495Z,57.33
2022-09-22T21:49:11.782Z,57.18
2022-09-22T21:51:44.250Z,58.55
2022-09-22T21:54:17.821Z,58.45
2022-09-22T21:56:45.732Z,58.50
2022-09-22T21:59:13.412Z,58.34
2022-09-22T22:01:42.366Z,58.54
2022-09-22T22:04:10.568Z,58.27
2022-09-22T22:06:40.957Z,58.41
2022-09-22T22:09:14.852Z,58.26
2022-09-22T22:11:56.868Z,58.10
2022-09-22T22:14:26.240Z,58.23
2022-09-22T22:16:55.122Z,58.21
2022-09-22T22:19:25.977Z,57.97
2022-09-22T22:21:53.568Z,58.45
2022-09-22T22:24:30.091Z,58.28
2022-09-22T22:27:06.717Z,58.29
2022-09-22T22:29:38.944Z,57.93
2022-09-22T22:32:08.902Z,57.51
2022-09-22T22:34:35.898Z,57.62
2022-09-22T22:37:04.861Z,57.37
2022-09-22T22:39:32.790Z,57.79
2022-09-22T22:41:59.726Z,57.87
2022-09-22T22:44:26.620Z,57.62
2022-09-22T22:46:53.601Z,57.46
2022-09-22T22:49:20.500Z,57.73
2022-09-22T22:51:49.369Z,57.58
2022-09-22T22:54:16.410Z,57.40
2022-09-22T22:56:46.707Z,57.49
2022-09-22T22:59:16.008Z,57.55
2022-09-22T23:01:44.535Z,57.88
2022-09-22T23:04:12.120Z,58.09
2022-09-22T23:06:41.960Z,57.81
2022-09-22T23:09:12.001Z,58.25
2022-09-22T23:11:40.332Z,57.87
2022-09-22T23:14:09.407Z,58.21
2022-09-22T23:16:45.434Z,58.39
2022-09-22T23:19:17.825Z,58.90
2022-09-22T23:21:45.397Z,58.83
2022-09-22T23:24:17.277Z,58.56
2022-09-22T23:26:45.773Z,58.90
2022-09-22T23:29:13.271Z,58.59
2022-09-22T23:31:40.307Z,58.82
2022-09-22T23:34:07.241Z,58.95
2022-09-22T23:36:34.651Z,59.12
2022-09-22T23:39:04.285Z,59.54
2022-09-22T23:41:33.269Z,59.66
2022-09-22T23:44:00.569Z,59.65
2022-09-22T23:46:28.207Z,59.91
2022-09-22T23:48:55.853Z,59.50
2022-09-22T23:51:23.505Z,59.29
2022-09-22T23:53:50.685Z,58.98
2022-09-22T23:56:17.746Z,59.32
2022-09-22T23:58:45.592Z,59.22
